Odessa, Ukraine
Current Conditions -  °F | °C
As of 3:30 PM on Wednesday 22 Oct 2014 (Local Time) from UKOO Reporting Station
Overcast Overcast  
Wind Chill: 57°   Ceiling: 2200
Heat Index: 57°   Visibility: 6mi
Dew Point: 54°   Wind: 9mph
Humidity: 88%   Direction: 100°E
Pressure: 29.71"   Gusts: NA
Location:  46.47°N, 30.74°E
Report Text: UKOO 221230Z 10004MPS 060V130 9999 SCT009 OVC022 14/12 Q1006 16090060 NOSIG
Loading
Personal Weather Stations






























Interactive Weather Map
Tropical Storm Tracking
New forecast layout! Learn more

10-Day Weather Forecast

Advertisements
Track Severe Weather on mobile